sensor_id;sensor_type;location;lat;lon;timestamp;P1;durP1;ratioP1;P2;durP2;ratioP2
10729;SDS011;5416;59.258;18.128;2023-02-14T00:00:37;4.05;;;3.95;;
10729;SDS011;5416;59.258;18.128;2023-02-14T00:03:04;4.05;;;3.95;;
10729;SDS011;5416;59.258;18.128;2023-02-14T00:05:33;4.00;;;3.90;;
10729;SDS011;5416;59.258;18.128;2023-02-14T00:08:00;4.13;;;4.03;;
10729;SDS011;5416;59.258;18.128;2023-02-14T00:10:27;4.32;;;4.22;;
10729;SDS011;5416;59.258;18.128;2023-02-14T00:12:55;3.50;;;3.40;;
10729;SDS011;5416;59.258;18.128;2023-02-14T00:15:22;3.28;;;3.17;;
10729;SDS011;5416;59.258;18.128;2023-02-14T00:17:49;3.40;;;3.30;;
10729;SDS011;5416;59.258;18.128;2023-02-14T00:20:17;3.30;;;3.20;;
10729;SDS011;5416;59.258;18.128;2023-02-14T00:22:46;3.40;;;3.30;;
10729;SDS011;5416;59.258;18.128;2023-02-14T00:25:13;3.50;;;3.40;;
10729;SDS011;5416;59.258;18.128;2023-02-14T00:27:41;3.63;;;3.53;;
10729;SDS011;5416;59.258;18.128;2023-02-14T00:30:08;3.60;;;3.50;;
10729;SDS011;5416;59.258;18.128;2023-02-14T00:32:36;3.70;;;3.60;;
10729;SDS011;5416;59.258;18.128;2023-02-14T00:35:04;3.63;;;3.53;;
10729;SDS011;5416;59.258;18.128;2023-02-14T00:37:31;4.15;;;4.05;;
10729;SDS011;5416;59.258;18.128;2023-02-14T00:40:00;3.50;;;3.40;;
10729;SDS011;5416;59.258;18.128;2023-02-14T00:42:27;3.95;;;3.85;;
10729;SDS011;5416;59.258;18.128;2023-02-14T00:44:55;3.80;;;3.70;;
10729;SDS011;5416;59.258;18.128;2023-02-14T00:47:22;3.40;;;3.30;;
10729;SDS011;5416;59.258;18.128;2023-02-14T00:49:49;3.30;;;3.20;;
10729;SDS011;5416;59.258;18.128;2023-02-14T00:52:17;3.20;;;3.10;;
10729;SDS011;5416;59.258;18.128;2023-02-14T00:54:44;3.75;;;3.65;;
10729;SDS011;5416;59.258;18.128;2023-02-14T00:57:13;3.30;;;3.20;;
10729;SDS011;5416;59.258;18.128;2023-02-14T00:59:40;4.20;;;4.10;;
10729;SDS011;5416;59.258;18.128;2023-02-14T01:02:07;3.77;;;3.67;;
10729;SDS011;5416;59.258;18.128;2023-02-14T01:04:34;4.28;;;4.18;;
10729;SDS011;5416;59.258;18.128;2023-02-14T01:07:02;4.45;;;4.35;;
10729;SDS011;5416;59.258;18.128;2023-02-14T01:09:29;3.72;;;3.63;;
10729;SDS011;5416;59.258;18.128;2023-02-14T01:11:56;3.72;;;3.63;;
10729;SDS011;5416;59.258;18.128;2023-02-14T01:14:25;3.42;;;3.33;;
10729;SDS011;5416;59.258;18.128;2023-02-14T01:16:53;3.47;;;3.38;;
10729;SDS011;5416;59.258;18.128;2023-02-14T01:19:20;3.72;;;3.63;;
10729;SDS011;5416;59.258;18.128;2023-02-14T01:21:47;3.35;;;3.25;;
10729;SDS011;5416;59.258;18.128;2023-02-14T01:24:14;3.20;;;3.10;;
10729;SDS011;5416;59.258;18.128;2023-02-14T01:26:42;4.20;;;4.10;;
10729;SDS011;5416;59.258;18.128;2023-02-14T01:29:09;4.07;;;3.97;;
10729;SDS011;5416;59.258;18.128;2023-02-14T01:31:38;3.20;;;3.10;;
10729;SDS011;5416;59.258;18.128;2023-02-14T01:34:05;3.35;;;3.25;;
10729;SDS011;5416;59.258;18.128;2023-02-14T01:36:34;3.43;;;3.33;;
10729;SDS011;5416;59.258;18.128;2023-02-14T01:39:03;3.95;;;3.85;;
10729;SDS011;5416;59.258;18.128;2023-02-14T01:41:32;4.13;;;4.03;;
10729;SDS011;5416;59.258;18.128;2023-02-14T01:44:00;4.10;;;4.00;;
10729;SDS011;5416;59.258;18.128;2023-02-14T01:46:30;4.25;;;4.15;;
10729;SDS011;5416;59.258;18.128;2023-02-14T01:48:59;3.35;;;3.25;;
10729;SDS011;5416;59.258;18.128;2023-02-14T01:51:27;3.50;;;3.40;;
10729;SDS011;5416;59.258;18.128;2023-02-14T01:53:55;3.42;;;3.33;;
10729;SDS011;5416;59.258;18.128;2023-02-14T01:56:26;3.80;;;3.70;;
10729;SDS011;5416;59.258;18.128;2023-02-14T01:58:55;3.93;;;3.83;;
10729;SDS011;5416;59.258;18.128;2023-02-14T02:01:24;4.10;;;4.00;;
10729;SDS011;5416;59.258;18.128;2023-02-14T02:03:52;3.78;;;3.67;;
10729;SDS011;5416;59.258;18.128;2023-02-14T02:06:22;3.90;;;3.80;;
10729;SDS011;5416;59.258;18.128;2023-02-14T02:08:55;3.42;;;3.33;;
10729;SDS011;5416;59.258;18.128;2023-02-14T02:11:25;3.50;;;3.40;;
10729;SDS011;5416;59.258;18.128;2023-02-14T02:13:52;3.80;;;3.70;;
10729;SDS011;5416;59.258;18.128;2023-02-14T02:19:07;4.13;;;4.03;;
10729;SDS011;5416;59.258;18.128;2023-02-14T02:24:28;3.95;;;3.85;;
10729;SDS011;5416;59.258;18.128;2023-02-14T02:35:21;3.33;;;3.22;;
10729;SDS011;5416;59.258;18.128;2023-02-14T02:37:55;3.70;;;3.60;;
10729;SDS011;5416;59.258;18.128;2023-02-14T02:40:27;3.65;;;3.55;;
10729;SDS011;5416;59.258;18.128;2023-02-14T02:42:57;3.90;;;3.80;;
10729;SDS011;5416;59.258;18.128;2023-02-14T02:45:28;3.40;;;3.30;;
10729;SDS011;5416;59.258;18.128;2023-02-14T02:48:02;3.05;;;2.95;;
10729;SDS011;5416;59.258;18.128;2023-02-14T02:50:33;3.42;;;3.33;;
10729;SDS011;5416;59.258;18.128;2023-02-14T02:53:22;3.60;;;3.50;;
10729;SDS011;5416;59.258;18.128;2023-02-14T02:55:52;3.63;;;3.53;;
10729;SDS011;5416;59.258;18.128;2023-02-14T02:58:38;3.33;;;3.22;;
10729;SDS011;5416;59.258;18.128;2023-02-14T03:01:08;3.33;;;3.22;;
10729;SDS011;5416;59.258;18.128;2023-02-14T03:03:36;3.28;;;3.17;;
10729;SDS011;5416;59.258;18.128;2023-02-14T03:06:22;3.40;;;3.30;;
10729;SDS011;5416;59.258;18.128;2023-02-14T03:08:50;3.60;;;3.50;;
10729;SDS011;5416;59.258;18.128;2023-02-14T03:11:17;3.83;;;3.72;;
10729;SDS011;5416;59.258;18.128;2023-02-14T03:16:31;3.38;;;3.28;;
10729;SDS011;5416;59.258;18.128;2023-02-14T03:22:06;3.10;;;3.00;;
10729;SDS011;5416;59.258;18.128;2023-02-14T03:24:37;3.10;;;3.00;;
10729;SDS011;5416;59.258;18.128;2023-02-14T03:27:09;3.45;;;3.35;;
10729;SDS011;5416;59.258;18.128;2023-02-14T03:29:41;3.63;;;3.53;;
10729;SDS011;5416;59.258;18.128;2023-02-14T03:32:10;3.65;;;3.55;;
10729;SDS011;5416;59.258;18.128;2023-02-14T03:34:47;3.90;;;3.80;;
10729;SDS011;5416;59.258;18.128;2023-02-14T03:37:19;3.45;;;3.35;;
10729;SDS011;5416;59.258;18.128;2023-02-14T03:39:49;2.80;;;2.70;;
10729;SDS011;5416;59.258;18.128;2023-02-14T03:42:19;3.25;;;3.15;;
10729;SDS011;5416;59.258;18.128;2023-02-14T03:44:47;3.15;;;3.05;;
10729;SDS011;5416;59.258;18.128;2023-02-14T03:47:16;3.50;;;3.40;;
10729;SDS011;5416;59.258;18.128;2023-02-14T03:49:47;3.63;;;3.53;;
10729;SDS011;5416;59.258;18.128;2023-02-14T03:52:18;3.20;;;3.10;;
10729;SDS011;5416;59.258;18.128;2023-02-14T03:54:47;3.13;;;3.03;;
10729;SDS011;5416;59.258;18.128;2023-02-14T03:57:17;3.50;;;3.40;;
10729;SDS011;5416;59.258;18.128;2023-02-14T03:59:45;3.60;;;3.50;;
10729;SDS011;5416;59.258;18.128;2023-02-14T04:02:14;4.13;;;4.03;;
10729;SDS011;5416;59.258;18.128;2023-02-14T04:04:44;3.83;;;3.72;;
10729;SDS011;5416;59.258;18.128;2023-02-14T04:07:12;3.22;;;3.13;;
10729;SDS011;5416;59.258;18.128;2023-02-14T04:09:41;3.40;;;3.30;;
10729;SDS011;5416;59.258;18.128;2023-02-14T04:12:09;3.40;;;3.30;;
10729;SDS011;5416;59.258;18.128;2023-02-14T04:14:36;3.70;;;3.60;;
10729;SDS011;5416;59.258;18.128;2023-02-14T04:17:04;3.83;;;3.72;;
10729;SDS011;5416;59.258;18.128;2023-02-14T04:19:49;3.53;;;3.42;;
10729;SDS011;5416;59.258;18.128;2023-02-14T04:22:16;3.45;;;3.35;;
10729;SDS011;5416;59.258;18.128;2023-02-14T04:24:45;3.40;;;3.30;;
10729;SDS011;5416;59.258;18.128;2023-02-14T04:27:12;3.53;;;3.42;;
10729;SDS011;5416;59.258;18.128;2023-02-14T04:29:40;3.78;;;3.67;;
10729;SDS011;5416;59.258;18.128;2023-02-14T04:32:09;3.83;;;3.73;;
10729;SDS011;5416;59.258;18.128;2023-02-14T04:34:36;3.35;;;3.25;;
10729;SDS011;5416;59.258;18.128;2023-02-14T04:37:04;3.28;;;3.17;;
10729;SDS011;5416;59.258;18.128;2023-02-14T04:39:31;3.42;;;3.33;;
10729;SDS011;5416;59.258;18.128;2023-02-14T04:42:00;3.88;;;3.78;;
10729;SDS011;5416;59.258;18.128;2023-02-14T04:44:27;4.20;;;4.10;;
10729;SDS011;5416;59.258;18.128;2023-02-14T04:46:55;4.10;;;4.00;;
10729;SDS011;5416;59.258;18.128;2023-02-14T04:49:22;3.88;;;3.78;;
10729;SDS011;5416;59.258;18.128;2023-02-14T04:51:50;3.38;;;3.28;;
10729;SDS011;5416;59.258;18.128;2023-02-14T04:54:17;3.70;;;3.60;;
10729;SDS011;5416;59.258;18.128;2023-02-14T04:56:44;3.50;;;3.40;;
10729;SDS011;5416;59.258;18.128;2023-02-14T04:59:13;3.80;;;3.70;;
10729;SDS011;5416;59.258;18.128;2023-02-14T05:01:40;4.20;;;4.10;;
10729;SDS011;5416;59.258;18.128;2023-02-14T05:04:08;3.70;;;3.60;;
10729;SDS011;5416;59.258;18.128;2023-02-14T05:06:36;3.50;;;3.40;;
10729;SDS011;5416;59.258;18.128;2023-02-14T05:09:03;3.72;;;3.63;;
10729;SDS011;5416;59.258;18.128;2023-02-14T05:11:30;3.67;;;3.57;;
10729;SDS011;5416;59.258;18.128;2023-02-14T05:13:57;3.60;;;3.50;;
10729;SDS011;5416;59.258;18.128;2023-02-14T05:16:26;3.85;;;3.75;;
10729;SDS011;5416;59.258;18.128;2023-02-14T05:18:53;3.88;;;3.78;;
10729;SDS011;5416;59.258;18.128;2023-02-14T05:21:21;3.40;;;3.30;;
10729;SDS011;5416;59.258;18.128;2023-02-14T05:23:48;3.60;;;3.50;;
10729;SDS011;5416;59.258;18.128;2023-02-14T05:26:15;4.35;;;4.25;;
10729;SDS011;5416;59.258;18.128;2023-02-14T05:28:43;4.20;;;4.10;;
10729;SDS011;5416;59.258;18.128;2023-02-14T05:31:10;4.07;;;3.97;;
10729;SDS011;5416;59.258;18.128;2023-02-14T05:33:38;4.43;;;4.32;;
10729;SDS011;5416;59.258;18.128;2023-02-14T05:36:06;3.83;;;3.73;;
10729;SDS011;5416;59.258;18.128;2023-02-14T05:38:33;3.47;;;3.38;;
10729;SDS011;5416;59.258;18.128;2023-02-14T05:41:01;3.33;;;3.22;;
10729;SDS011;5416;59.258;18.128;2023-02-14T05:43:28;3.50;;;3.40;;
10729;SDS011;5416;59.258;18.128;2023-02-14T05:45:56;3.55;;;3.45;;
10729;SDS011;5416;59.258;18.128;2023-02-14T05:48:23;3.55;;;3.45;;
10729;SDS011;5416;59.258;18.128;2023-02-14T05:50:52;3.50;;;3.40;;
10729;SDS011;5416;59.258;18.128;2023-02-14T05:53:19;3.60;;;3.50;;
10729;SDS011;5416;59.258;18.128;2023-02-14T05:55:47;3.05;;;2.95;;
10729;SDS011;5416;59.258;18.128;2023-02-14T05:58:14;3.22;;;3.13;;
10729;SDS011;5416;59.258;18.128;2023-02-14T06:00:41;3.40;;;3.30;;
10729;SDS011;5416;59.258;18.128;2023-02-14T06:03:08;3.72;;;3.63;;
10729;SDS011;5416;59.258;18.128;2023-02-14T06:05:36;3.87;;;3.77;;
10729;SDS011;5416;59.258;18.128;2023-02-14T06:08:04;3.20;;;3.10;;
10729;SDS011;5416;59.258;18.128;2023-02-14T06:10:32;3.25;;;3.15;;
10729;SDS011;5416;59.258;18.128;2023-02-14T06:12:59;2.95;;;2.85;;
10729;SDS011;5416;59.258;18.128;2023-02-14T06:15:26;3.67;;;3.58;;
10729;SDS011;5416;59.258;18.128;2023-02-14T06:17:54;3.63;;;3.53;;
10729;SDS011;5416;59.258;18.128;2023-02-14T06:20:22;3.88;;;3.78;;
10729;SDS011;5416;59.258;18.128;2023-02-14T06:22:50;3.22;;;3.13;;
10729;SDS011;5416;59.258;18.128;2023-02-14T06:25:18;3.22;;;3.13;;
10729;SDS011;5416;59.258;18.128;2023-02-14T06:27:46;3.55;;;3.45;;
10729;SDS011;5416;59.258;18.128;2023-02-14T06:30:13;3.63;;;3.53;;
10729;SDS011;5416;59.258;18.128;2023-02-14T06:32:41;3.60;;;3.50;;
10729;SDS011;5416;59.258;18.128;2023-02-14T06:35:08;4.00;;;3.90;;
10729;SDS011;5416;59.258;18.128;2023-02-14T06:37:35;3.72;;;3.63;;
10729;SDS011;5416;59.258;18.128;2023-02-14T06:40:05;3.65;;;3.55;;
10729;SDS011;5416;59.258;18.128;2023-02-14T06:42:34;3.40;;;3.30;;
10729;SDS011;5416;59.258;18.128;2023-02-14T06:45:02;3.40;;;3.30;;
10729;SDS011;5416;59.258;18.128;2023-02-14T06:47:30;3.50;;;3.40;;
10729;SDS011;5416;59.258;18.128;2023-02-14T06:49:57;4.00;;;3.90;;
10729;SDS011;5416;59.258;18.128;2023-02-14T06:52:25;4.20;;;4.10;;
10729;SDS011;5416;59.258;18.128;2023-02-14T06:54:53;3.70;;;3.60;;
10729;SDS011;5416;59.258;18.128;2023-02-14T06:57:20;3.67;;;3.58;;
10729;SDS011;5416;59.258;18.128;2023-02-14T06:59:49;3.50;;;3.40;;
10729;SDS011;5416;59.258;18.128;2023-02-14T07:02:16;3.50;;;3.40;;
10729;SDS011;5416;59.258;18.128;2023-02-14T07:04:43;4.10;;;4.00;;
10729;SDS011;5416;59.258;18.128;2023-02-14T07:07:10;3.80;;;3.70;;
10729;SDS011;5416;59.258;18.128;2023-02-14T07:09:38;4.30;;;4.20;;
10729;SDS011;5416;59.258;18.128;2023-02-14T07:12:05;4.70;;;4.53;;
10729;SDS011;5416;59.258;18.128;2023-02-14T07:14:32;4.20;;;4.10;;
10729;SDS011;5416;59.258;18.128;2023-02-14T07:17:01;3.63;;;3.53;;
10729;SDS011;5416;59.258;18.128;2023-02-14T07:19:28;3.13;;;3.03;;
10729;SDS011;5416;59.258;18.128;2023-02-14T07:21:56;3.03;;;2.92;;
10729;SDS011;5416;59.258;18.128;2023-02-14T07:24:23;3.90;;;3.80;;
10729;SDS011;5416;59.258;18.128;2023-02-14T07:26:50;3.95;;;3.85;;
10729;SDS011;5416;59.258;18.128;2023-02-14T07:29:18;3.80;;;3.70;;
10729;SDS011;5416;59.258;18.128;2023-02-14T07:31:45;3.80;;;3.70;;
10729;SDS011;5416;59.258;18.128;2023-02-14T07:34:14;4.00;;;3.90;;
10729;SDS011;5416;59.258;18.128;2023-02-14T07:36:41;3.78;;;3.67;;
10729;SDS011;5416;59.258;18.128;2023-02-14T07:39:09;4.05;;;3.95;;
10729;SDS011;5416;59.258;18.128;2023-02-14T07:41:36;3.33;;;3.22;;
10729;SDS011;5416;59.258;18.128;2023-02-14T07:44:03;3.57;;;3.47;;
10729;SDS011;5416;59.258;18.128;2023-02-14T07:46:31;3.70;;;3.60;;
10729;SDS011;5416;59.258;18.128;2023-02-14T07:48:58;3.10;;;3.00;;
10729;SDS011;5416;59.258;18.128;2023-02-14T07:51:27;3.83;;;3.72;;
10729;SDS011;5416;59.258;18.128;2023-02-14T07:53:54;3.40;;;3.30;;
10729;SDS011;5416;59.258;18.128;2023-02-14T07:56:21;3.10;;;3.00;;
10729;SDS011;5416;59.258;18.128;2023-02-14T07:58:49;3.67;;;3.58;;
10729;SDS011;5416;59.258;18.128;2023-02-14T08:01:16;3.67;;;3.58;;
10729;SDS011;5416;59.258;18.128;2023-02-14T08:03:45;3.63;;;3.53;;
10729;SDS011;5416;59.258;18.128;2023-02-14T08:06:14;3.50;;;3.40;;
10729;SDS011;5416;59.258;18.128;2023-02-14T08:08:42;3.85;;;3.75;;
10729;SDS011;5416;59.258;18.128;2023-02-14T08:11:10;3.80;;;3.70;;
10729;SDS011;5416;59.258;18.128;2023-02-14T08:13:57;3.60;;;3.50;;
10729;SDS011;5416;59.258;18.128;2023-02-14T08:16:24;3.30;;;3.20;;
10729;SDS011;5416;59.258;18.128;2023-02-14T08:18:51;3.33;;;3.22;;
10729;SDS011;5416;59.258;18.128;2023-02-14T08:21:18;3.33;;;3.22;;
10729;SDS011;5416;59.258;18.128;2023-02-14T08:23:47;3.55;;;3.45;;
10729;SDS011;5416;59.258;18.128;2023-02-14T08:26:14;3.47;;;3.38;;
10729;SDS011;5416;59.258;18.128;2023-02-14T08:28:41;3.83;;;3.73;;
10729;SDS011;5416;59.258;18.128;2023-02-14T08:31:09;3.95;;;3.85;;
10729;SDS011;5416;59.258;18.128;2023-02-14T08:33:36;4.07;;;3.97;;
10729;SDS011;5416;59.258;18.128;2023-02-14T08:36:04;4.10;;;4.00;;
10729;SDS011;5416;59.258;18.128;2023-02-14T08:38:31;4.00;;;3.90;;
10729;SDS011;5416;59.258;18.128;2023-02-14T08:41:00;4.07;;;3.97;;
10729;SDS011;5416;59.258;18.128;2023-02-14T08:43:28;3.30;;;3.20;;
10729;SDS011;5416;59.258;18.128;2023-02-14T08:45:55;3.90;;;3.80;;
10729;SDS011;5416;59.258;18.128;2023-02-14T08:48:22;3.80;;;3.70;;
10729;SDS011;5416;59.258;18.128;2023-02-14T08:50:51;3.63;;;3.53;;
10729;SDS011;5416;59.258;18.128;2023-02-14T08:53:18;3.60;;;3.50;;
10729;SDS011;5416;59.258;18.128;2023-02-14T08:55:46;3.88;;;3.78;;
10729;SDS011;5416;59.258;18.128;2023-02-14T08:58:14;4.22;;;4.13;;
10729;SDS011;5416;59.258;18.128;2023-02-14T09:00:42;3.85;;;3.75;;
10729;SDS011;5416;59.258;18.128;2023-02-14T09:03:09;4.03;;;3.92;;
10729;SDS011;5416;59.258;18.128;2023-02-14T09:05:37;3.90;;;3.80;;
10729;SDS011;5416;59.258;18.128;2023-02-14T09:08:04;3.60;;;3.50;;
10729;SDS011;5416;59.258;18.128;2023-02-14T09:10:31;3.90;;;3.80;;
10729;SDS011;5416;59.258;18.128;2023-02-14T09:12:58;3.75;;;3.65;;
10729;SDS011;5416;59.258;18.128;2023-02-14T09:15:27;3.80;;;3.70;;
10729;SDS011;5416;59.258;18.128;2023-02-14T09:17:54;3.88;;;3.78;;
10729;SDS011;5416;59.258;18.128;2023-02-14T09:20:22;3.90;;;3.80;;
10729;SDS011;5416;59.258;18.128;2023-02-14T09:22:49;4.10;;;4.00;;
10729;SDS011;5416;59.258;18.128;2023-02-14T09:25:16;3.90;;;3.80;;
10729;SDS011;5416;59.258;18.128;2023-02-14T09:27:44;3.80;;;3.70;;
10729;SDS011;5416;59.258;18.128;2023-02-14T09:30:11;3.75;;;3.65;;
10729;SDS011;5416;59.258;18.128;2023-02-14T09:32:40;3.53;;;3.42;;
10729;SDS011;5416;59.258;18.128;2023-02-14T09:35:07;4.03;;;3.92;;
10729;SDS011;5416;59.258;18.128;2023-02-14T09:37:52;3.50;;;3.40;;
10729;SDS011;5416;59.258;18.128;2023-02-14T09:40:20;3.50;;;3.40;;
10729;SDS011;5416;59.258;18.128;2023-02-14T09:42:53;3.40;;;3.30;;
10729;SDS011;5416;59.258;18.128;2023-02-14T09:45:23;3.50;;;3.40;;
10729;SDS011;5416;59.258;18.128;2023-02-14T09:47:53;3.63;;;3.53;;
10729;SDS011;5416;59.258;18.128;2023-02-14T09:50:23;3.70;;;3.60;;
10729;SDS011;5416;59.258;18.128;2023-02-14T09:52:52;3.53;;;3.43;;
10729;SDS011;5416;59.258;18.128;2023-02-14T09:55:21;3.70;;;3.60;;
10729;SDS011;5416;59.258;18.128;2023-02-14T09:58:03;3.65;;;3.55;;
10729;SDS011;5416;59.258;18.128;2023-02-14T10:00:33;3.87;;;3.77;;
10729;SDS011;5416;59.258;18.128;2023-02-14T10:03:08;3.83;;;3.72;;
10729;SDS011;5416;59.258;18.128;2023-02-14T10:05:43;3.93;;;3.83;;
10729;SDS011;5416;59.258;18.128;2023-02-14T10:08:16;3.83;;;3.72;;
10729;SDS011;5416;59.258;18.128;2023-02-14T10:10:47;3.60;;;3.50;;
10729;SDS011;5416;59.258;18.128;2023-02-14T10:13:17;3.88;;;3.78;;
10729;SDS011;5416;59.258;18.128;2023-02-14T10:15:46;3.67;;;3.57;;
10729;SDS011;5416;59.258;18.128;2023-02-14T10:18:17;3.78;;;3.67;;
10729;SDS011;5416;59.258;18.128;2023-02-14T10:20:47;3.70;;;3.60;;
10729;SDS011;5416;59.258;18.128;2023-02-14T10:23:23;3.65;;;3.55;;
10729;SDS011;5416;59.258;18.128;2023-02-14T10:25:54;3.57;;;3.47;;
10729;SDS011;5416;59.258;18.128;2023-02-14T10:28:24;3.72;;;3.63;;
10729;SDS011;5416;59.258;18.128;2023-02-14T10:30:55;3.60;;;3.50;;
10729;SDS011;5416;59.258;18.128;2023-02-14T10:33:28;3.70;;;3.60;;
10729;SDS011;5416;59.258;18.128;2023-02-14T10:35:58;3.90;;;3.80;;
10729;SDS011;5416;59.258;18.128;2023-02-14T10:38:30;4.00;;;3.90;;
10729;SDS011;5416;59.258;18.128;2023-02-14T10:41:07;3.90;;;3.80;;
10729;SDS011;5416;59.258;18.128;2023-02-14T10:43:41;3.65;;;3.55;;
10729;SDS011;5416;59.258;18.128;2023-02-14T10:46:10;4.00;;;3.90;;
10729;SDS011;5416;59.258;18.128;2023-02-14T10:48:44;3.90;;;3.80;;
10729;SDS011;5416;59.258;18.128;2023-02-14T10:51:14;3.83;;;3.72;;
10729;SDS011;5416;59.258;18.128;2023-02-14T10:53:44;3.90;;;3.80;;
10729;SDS011;5416;59.258;18.128;2023-02-14T10:56:17;4.05;;;3.95;;
10729;SDS011;5416;59.258;18.128;2023-02-14T10:58:46;3.75;;;3.65;;
10729;SDS011;5416;59.258;18.128;2023-02-14T11:01:16;3.63;;;3.53;;
10729;SDS011;5416;59.258;18.128;2023-02-14T11:03:48;3.67;;;3.58;;
10729;SDS011;5416;59.258;18.128;2023-02-14T11:06:17;3.85;;;3.75;;
10729;SDS011;5416;59.258;18.128;2023-02-14T11:08:44;3.80;;;3.70;;
10729;SDS011;5416;59.258;18.128;2023-02-14T11:11:13;3.80;;;3.70;;
10729;SDS011;5416;59.258;18.128;2023-02-14T11:13:41;3.80;;;3.70;;
10729;SDS011;5416;59.258;18.128;2023-02-14T11:16:09;3.80;;;3.70;;
10729;SDS011;5416;59.258;18.128;2023-02-14T11:18:37;4.30;;;4.20;;
10729;SDS011;5416;59.258;18.128;2023-02-14T11:21:07;3.78;;;3.67;;
10729;SDS011;5416;59.258;18.128;2023-02-14T11:23:36;3.70;;;3.60;;
10729;SDS011;5416;59.258;18.128;2023-02-14T11:26:04;3.90;;;3.80;;
10729;SDS011;5416;59.258;18.128;2023-02-14T11:28:33;3.78;;;3.67;;
10729;SDS011;5416;59.258;18.128;2023-02-14T11:31:01;4.20;;;4.10;;
10729;SDS011;5416;59.258;18.128;2023-02-14T11:33:31;4.00;;;3.90;;
10729;SDS011;5416;59.258;18.128;2023-02-14T11:35:59;4.07;;;3.97;;
10729;SDS011;5416;59.258;18.128;2023-02-14T11:38:30;3.95;;;3.85;;
10729;SDS011;5416;59.258;18.128;2023-02-14T11:40:59;4.00;;;3.90;;
10729;SDS011;5416;59.258;18.128;2023-02-14T11:43:30;3.67;;;3.58;;
10729;SDS011;5416;59.258;18.128;2023-02-14T11:46:11;3.92;;;3.83;;
10729;SDS011;5416;59.258;18.128;2023-02-14T11:48:45;3.95;;;3.85;;
10729;SDS011;5416;59.258;18.128;2023-02-14T11:51:22;4.03;;;3.92;;
10729;SDS011;5416;59.258;18.128;2023-02-14T11:53:53;4.03;;;3.92;;
10729;SDS011;5416;59.258;18.128;2023-02-14T11:56:21;4.30;;;4.20;;
10729;SDS011;5416;59.258;18.128;2023-02-14T11:58:53;4.25;;;4.15;;
10729;SDS011;5416;59.258;18.128;2023-02-14T12:01:21;4.10;;;4.00;;
10729;SDS011;5416;59.258;18.128;2023-02-14T12:03:50;3.85;;;3.75;;
10729;SDS011;5416;59.258;18.128;2023-02-14T12:06:21;3.83;;;3.72;;
10729;SDS011;5416;59.258;18.128;2023-02-14T12:08:49;4.40;;;4.30;;
10729;SDS011;5416;59.258;18.128;2023-02-14T12:11:19;4.00;;;3.90;;
10729;SDS011;5416;59.258;18.128;2023-02-14T12:13:52;4.22;;;4.13;;
10729;SDS011;5416;59.258;18.128;2023-02-14T12:16:21;3.78;;;3.67;;
10729;SDS011;5416;59.258;18.128;2023-02-14T12:18:51;3.97;;;3.88;;
10729;SDS011;5416;59.258;18.128;2023-02-14T12:21:23;4.25;;;4.15;;
10729;SDS011;5416;59.258;18.128;2023-02-14T12:23:54;4.30;;;4.20;;
10729;SDS011;5416;59.258;18.128;2023-02-14T12:26:27;4.15;;;4.05;;
10729;SDS011;5416;59.258;18.128;2023-02-14T12:28:58;4.35;;;4.25;;
10729;SDS011;5416;59.258;18.128;2023-02-14T12:31:26;3.70;;;3.60;;
10729;SDS011;5416;59.258;18.128;2023-02-14T12:33:53;4.25;;;4.15;;
10729;SDS011;5416;59.258;18.128;2023-02-14T12:36:25;4.00;;;3.90;;
10729;SDS011;5416;59.258;18.128;2023-02-14T12:38:59;3.70;;;3.60;;
10729;SDS011;5416;59.258;18.128;2023-02-14T12:41:32;4.03;;;3.92;;
10729;SDS011;5416;59.258;18.128;2023-02-14T12:44:01;4.30;;;4.20;;
10729;SDS011;5416;59.258;18.128;2023-02-14T12:46:49;4.35;;;4.25;;
10729;SDS011;5416;59.258;18.128;2023-02-14T12:49:28;4.00;;;3.90;;
10729;SDS011;5416;59.258;18.128;2023-02-14T12:52:02;4.80;;;4.60;;
10729;SDS011;5416;59.258;18.128;2023-02-14T12:54:37;4.38;;;4.28;;
10729;SDS011;5416;59.258;18.128;2023-02-14T12:57:12;3.92;;;3.83;;
10729;SDS011;5416;59.258;18.128;2023-02-14T12:59:45;4.15;;;4.05;;
10729;SDS011;5416;59.258;18.128;2023-02-14T13:02:33;4.75;;;4.55;;
10729;SDS011;5416;59.258;18.128;2023-02-14T13:05:05;4.30;;;4.20;;
10729;SDS011;5416;59.258;18.128;2023-02-14T13:07:40;4.38;;;4.28;;
10729;SDS011;5416;59.258;18.128;2023-02-14T13:10:12;4.20;;;4.10;;
10729;SDS011;5416;59.258;18.128;2023-02-14T13:12:43;4.43;;;4.32;;
10729;SDS011;5416;59.258;18.128;2023-02-14T13:15:14;4.10;;;4.00;;
10729;SDS011;5416;59.258;18.128;2023-02-14T13:17:45;4.28;;;4.18;;
10729;SDS011;5416;59.258;18.128;2023-02-14T13:20:21;4.13;;;4.03;;
10729;SDS011;5416;59.258;18.128;2023-02-14T13:22:55;4.03;;;3.92;;
10729;SDS011;5416;59.258;18.128;2023-02-14T13:25:24;3.80;;;3.70;;
10729;SDS011;5416;59.258;18.128;2023-02-14T13:27:57;4.10;;;4.00;;
10729;SDS011;5416;59.258;18.128;2023-02-14T13:30:26;4.13;;;4.03;;
10729;SDS011;5416;59.258;18.128;2023-02-14T13:32:55;4.28;;;4.18;;
10729;SDS011;5416;59.258;18.128;2023-02-14T13:35:23;4.47;;;4.38;;
10729;SDS011;5416;59.258;18.128;2023-02-14T13:37:53;4.78;;;4.57;;
10729;SDS011;5416;59.258;18.128;2023-02-14T13:40:21;4.40;;;4.30;;
10729;SDS011;5416;59.258;18.128;2023-02-14T13:42:50;4.50;;;4.40;;
10729;SDS011;5416;59.258;18.128;2023-02-14T13:48:13;4.50;;;4.40;;
10729;SDS011;5416;59.258;18.128;2023-02-14T13:50:47;4.20;;;4.10;;
10729;SDS011;5416;59.258;18.128;2023-02-14T13:53:27;4.45;;;4.35;;
10729;SDS011;5416;59.258;18.128;2023-02-14T13:55:55;4.80;;;4.60;;
10729;SDS011;5416;59.258;18.128;2023-02-14T13:58:22;4.20;;;4.10;;
10729;SDS011;5416;59.258;18.128;2023-02-14T14:00:50;4.47;;;4.38;;
10729;SDS011;5416;59.258;18.128;2023-02-14T14:06:03;4.28;;;4.18;;
10729;SDS011;5416;59.258;18.128;2023-02-14T14:08:35;4.10;;;4.00;;
10729;SDS011;5416;59.258;18.128;2023-02-14T14:11:03;4.45;;;4.35;;
10729;SDS011;5416;59.258;18.128;2023-02-14T14:16:18;3.95;;;3.85;;
10729;SDS011;5416;59.258;18.128;2023-02-14T14:18:46;4.28;;;4.18;;
10729;SDS011;5416;59.258;18.128;2023-02-14T14:21:20;3.90;;;3.80;;
10729;SDS011;5416;59.258;18.128;2023-02-14T14:24:00;3.80;;;3.70;;
10729;SDS011;5416;59.258;18.128;2023-02-14T14:26:32;4.72;;;4.55;;
10729;SDS011;5416;59.258;18.128;2023-02-14T14:29:00;4.47;;;4.38;;
10729;SDS011;5416;59.258;18.128;2023-02-14T14:31:28;4.10;;;4.00;;
10729;SDS011;5416;59.258;18.128;2023-02-14T14:33:59;4.22;;;4.13;;
10729;SDS011;5416;59.258;18.128;2023-02-14T14:36:27;4.20;;;4.10;;
10729;SDS011;5416;59.258;18.128;2023-02-14T14:38:55;3.70;;;3.60;;
10729;SDS011;5416;59.258;18.128;2023-02-14T14:41:25;4.03;;;3.92;;
10729;SDS011;5416;59.258;18.128;2023-02-14T14:43:54;3.95;;;3.85;;
10729;SDS011;5416;59.258;18.128;2023-02-14T14:46:21;3.97;;;3.88;;
10729;SDS011;5416;59.258;18.128;2023-02-14T14:48:49;4.10;;;4.00;;
10729;SDS011;5416;59.258;18.128;2023-02-14T14:51:21;4.27;;;4.17;;
10729;SDS011;5416;59.258;18.128;2023-02-14T14:53:51;4.45;;;4.35;;
10729;SDS011;5416;59.258;18.128;2023-02-14T14:56:21;4.47;;;4.38;;
10729;SDS011;5416;59.258;18.128;2023-02-14T14:58:49;4.47;;;4.38;;
10729;SDS011;5416;59.258;18.128;2023-02-14T15:01:26;4.97;;;4.78;;
10729;SDS011;5416;59.258;18.128;2023-02-14T15:04:06;4.30;;;4.20;;
10729;SDS011;5416;59.258;18.128;2023-02-14T15:06:33;3.97;;;3.88;;
10729;SDS011;5416;59.258;18.128;2023-02-14T15:09:11;3.88;;;3.78;;
10729;SDS011;5416;59.258;18.128;2023-02-14T15:11:38;4.25;;;4.15;;
10729;SDS011;5416;59.258;18.128;2023-02-14T15:14:25;3.72;;;3.63;;
10729;SDS011;5416;59.258;18.128;2023-02-14T15:16:54;3.73;;;3.63;;
10729;SDS011;5416;59.258;18.128;2023-02-14T15:19:24;3.90;;;3.80;;
10729;SDS011;5416;59.258;18.128;2023-02-14T15:21:58;3.88;;;3.78;;
10729;SDS011;5416;59.258;18.128;2023-02-14T15:24:27;4.13;;;4.03;;
10729;SDS011;5416;59.258;18.128;2023-02-14T15:26:55;4.30;;;4.20;;
10729;SDS011;5416;59.258;18.128;2023-02-14T15:29:24;4.37;;;4.27;;